createdAt,value
2022-12-27T00:01:40.901Z,100.00
2022-12-27T00:04:08.995Z,100.00
2022-12-27T00:06:37.474Z,100.00
2022-12-27T00:09:07.227Z,100.00
2022-12-27T00:11:35.177Z,100.00
2022-12-27T00:14:03.718Z,100.00
2022-12-27T00:16:32.222Z,100.00
2022-12-27T00:19:00.834Z,100.00
2022-12-27T00:21:28.718Z,100.00
2022-12-27T00:23:57.764Z,100.00
2022-12-27T00:26:29.294Z,100.00
2022-12-27T00:28:57.705Z,100.00
2022-12-27T00:31:27.180Z,100.00
2022-12-27T00:33:57.155Z,100.00
2022-12-27T00:36:27.462Z,100.00
2022-12-27T00:38:57.058Z,100.00
2022-12-27T00:41:27.035Z,100.00
2022-12-27T00:43:55.059Z,100.00
2022-12-27T00:46:22.949Z,100.00
2022-12-27T00:48:50.988Z,100.00
2022-12-27T00:51:20.833Z,100.00
2022-12-27T00:53:49.154Z,100.00
2022-12-27T00:56:18.979Z,100.00
2022-12-27T00:58:48.704Z,100.00
2022-12-27T01:01:19.353Z,100.00
2022-12-27T01:03:47.896Z,100.00
2022-12-27T01:06:17.315Z,100.00
2022-12-27T01:08:45.671Z,100.00
2022-12-27T01:11:14.248Z,100.00
2022-12-27T01:13:42.681Z,100.00
2022-12-27T01:16:14.632Z,100.00
2022-12-27T01:18:42.896Z,100.00
2022-12-27T01:21:12.843Z,100.00
2022-12-27T01:23:41.293Z,100.00
2022-12-27T01:26:12.746Z,100.00
2022-12-27T01:28:40.865Z,100.00
2022-12-27T01:31:10.658Z,100.00
2022-12-27T01:33:40.175Z,100.00
2022-12-27T01:36:12.926Z,100.00
2022-12-27T01:38:43.408Z,100.00
2022-12-27T01:41:33.528Z,100.00
2022-12-27T01:44:01.772Z,100.00
2022-12-27T01:46:30.933Z,100.00
2022-12-27T01:49:03.224Z,100.00
2022-12-27T01:51:32.917Z,100.00
2022-12-27T01:54:00.842Z,100.00
2022-12-27T01:56:32.433Z,100.00
2022-12-27T01:59:04.307Z,100.00
2022-12-27T02:01:44.035Z,100.00
2022-12-27T02:04:16.801Z,100.00
2022-12-27T02:06:45.212Z,100.00
2022-12-27T02:09:19.679Z,100.00
2022-12-27T02:11:55.516Z,100.00
2022-12-27T02:14:28.407Z,100.00
2022-12-27T02:16:58.609Z,100.00
2022-12-27T02:19:50.858Z,100.00
2022-12-27T02:23:05.676Z,100.00
2022-12-27T02:25:50.555Z,100.00
2022-12-27T02:28:34.400Z,100.00
2022-12-27T02:31:09.434Z,100.00
2022-12-27T02:33:45.259Z,100.00
2022-12-27T02:36:19.955Z,100.00
2022-12-27T02:38:53.124Z,100.00
2022-12-27T02:41:39.447Z,100.00
2022-12-27T02:44:25.936Z,100.00
2022-12-27T02:47:13.043Z,100.00
2022-12-27T02:50:00.656Z,100.00
2022-12-27T02:52:58.594Z,100.00
2022-12-27T02:55:35.287Z,100.00
2022-12-27T02:58:22.041Z,100.00
2022-12-27T03:01:21.091Z,100.00
2022-12-27T03:04:03.224Z,100.00
2022-12-27T03:06:57.787Z,100.00
2022-12-27T03:10:07.784Z,100.00
2022-12-27T03:13:04.509Z,100.00
2022-12-27T03:15:57.630Z,100.00
2022-12-27T03:18:45.332Z,100.00
2022-12-27T03:21:37.615Z,100.00
2022-12-27T03:24:37.039Z,100.00
2022-12-27T03:27:10.710Z,100.00
2022-12-27T03:29:56.768Z,100.00
2022-12-27T03:32:43.283Z,100.00
2022-12-27T03:35:16.259Z,100.00
2022-12-27T03:38:13.305Z,100.00
2022-12-27T03:41:03.548Z,100.00
2022-12-27T03:43:32.477Z,100.00
2022-12-27T03:46:39.730Z,100.00
2022-12-27T03:49:16.386Z,100.00
2022-12-27T03:51:49.759Z,100.00
2022-12-27T03:54:26.466Z,100.00
2022-12-27T03:56:57.584Z,100.00
2022-12-27T03:59:25.733Z,100.00
2022-12-27T04:01:53.814Z,100.00
2022-12-27T04:04:21.802Z,100.00
2022-12-27T04:06:49.793Z,100.00
2022-12-27T04:09:36.473Z,100.00
2022-12-27T04:12:21.837Z,100.00
2022-12-27T04:15:07.377Z,100.00
2022-12-27T04:17:52.741Z,100.00
2022-12-27T04:20:38.598Z,100.00
2022-12-27T04:23:23.762Z,100.00
2022-12-27T04:26:10.577Z,100.00
2022-12-27T04:28:56.381Z,100.00
2022-12-27T04:31:42.247Z,100.00
2022-12-27T04:34:27.663Z,100.00
2022-12-27T04:36:55.509Z,100.00
2022-12-27T04:39:23.389Z,100.00
2022-12-27T04:42:10.413Z,100.00
2022-12-27T04:44:52.281Z,100.00
2022-12-27T04:47:40.456Z,100.00
2022-12-27T04:50:38.430Z,100.00
2022-12-27T04:53:28.584Z,100.00
2022-12-27T04:55:56.553Z,100.00
2022-12-27T04:58:26.047Z,100.00
2022-12-27T05:01:14.338Z,100.00
2022-12-27T05:03:43.363Z,100.00
2022-12-27T05:06:11.418Z,100.00
2022-12-27T05:08:56.970Z,100.00
2022-12-27T05:11:42.574Z,100.00
2022-12-27T05:14:14.962Z,100.00
2022-12-27T05:16:44.986Z,100.00
2022-12-27T05:19:14.640Z,100.00
2022-12-27T05:22:04.779Z,100.00
2022-12-27T05:24:50.743Z,100.00
2022-12-27T05:27:18.963Z,100.00
2022-12-27T05:29:48.677Z,100.00
2022-12-27T05:32:16.507Z,100.00
2022-12-27T05:34:44.400Z,100.00
2022-12-27T05:37:12.355Z,100.00
2022-12-27T05:39:40.336Z,100.00
2022-12-27T05:42:08.203Z,100.00
2022-12-27T05:44:36.047Z,100.00
2022-12-27T05:47:05.345Z,100.00
2022-12-27T05:49:33.227Z,100.00
2022-12-27T05:52:01.072Z,100.00
2022-12-27T05:54:28.916Z,100.00
2022-12-27T05:56:56.749Z,100.00
2022-12-27T05:59:24.610Z,100.00
2022-12-27T06:01:53.102Z,100.00
2022-12-27T06:04:22.425Z,100.00
2022-12-27T06:06:50.310Z,100.00
2022-12-27T06:09:18.196Z,100.00
2022-12-27T06:11:46.076Z,100.00
2022-12-27T06:14:14.316Z,100.00
2022-12-27T06:16:42.245Z,100.00
2022-12-27T06:19:10.133Z,100.00
2022-12-27T06:21:39.372Z,100.00
2022-12-27T06:24:07.858Z,100.00
2022-12-27T06:26:35.719Z,100.00
2022-12-27T06:29:03.537Z,100.00
2022-12-27T06:31:31.401Z,100.00
2022-12-27T06:33:59.279Z,100.00
2022-12-27T06:36:28.692Z,100.00
2022-12-27T06:38:58.415Z,100.00
2022-12-27T06:41:26.740Z,100.00
2022-12-27T06:43:56.157Z,100.00
2022-12-27T06:46:28.042Z,100.00
2022-12-27T06:48:55.936Z,100.00
2022-12-27T06:51:23.804Z,100.00
2022-12-27T06:53:51.650Z,100.00
2022-12-27T06:56:22.895Z,100.00
2022-12-27T06:58:52.339Z,100.00
2022-12-27T07:01:22.105Z,100.00
2022-12-27T07:03:51.605Z,100.00
2022-12-27T07:06:20.362Z,100.00
2022-12-27T07:08:48.705Z,100.00
2022-12-27T07:11:17.374Z,100.00
2022-12-27T07:13:50.419Z,100.00
2022-12-27T07:16:25.566Z,100.00
2022-12-27T07:18:54.021Z,100.00
2022-12-27T07:21:25.100Z,100.00
2022-12-27T07:23:52.955Z,100.00
2022-12-27T07:26:23.211Z,100.00
2022-12-27T07:28:54.690Z,100.00
2022-12-27T07:31:26.468Z,100.00
2022-12-27T07:33:54.734Z,100.00
2022-12-27T07:36:25.107Z,100.00
2022-12-27T07:38:53.234Z,100.00
2022-12-27T07:41:21.222Z,100.00
2022-12-27T07:43:49.162Z,100.00
2022-12-27T07:46:19.838Z,100.00
2022-12-27T07:48:48.279Z,100.00
2022-12-27T07:51:18.691Z,100.00
2022-12-27T07:53:49.077Z,100.00
2022-12-27T07:56:25.543Z,100.00
2022-12-27T07:58:55.331Z,100.00
2022-12-27T08:01:27.214Z,100.00
2022-12-27T08:03:55.830Z,100.00
2022-12-27T08:06:26.474Z,100.00
2022-12-27T08:08:56.887Z,100.00
2022-12-27T08:11:26.585Z,98.87
2022-12-27T08:13:54.819Z,99.49
2022-12-27T08:16:27.038Z,98.19
2022-12-27T08:18:55.174Z,95.91
2022-12-27T08:21:23.835Z,96.58
2022-12-27T08:23:51.925Z,96.48
2022-12-27T08:26:25.004Z,94.25
2022-12-27T08:28:53.478Z,94.72
2022-12-27T08:31:21.505Z,95.44
2022-12-27T08:33:58.088Z,92.94
2022-12-27T08:39:14.435Z,89.07
2022-12-27T08:41:42.360Z,90.95
2022-12-27T08:44:10.417Z,90.14
2022-12-27T08:46:38.401Z,87.54
2022-12-27T08:49:07.740Z,88.17
2022-12-27T08:51:40.826Z,87.20
2022-12-27T08:54:09.776Z,87.73
2022-12-27T08:56:38.129Z,85.82
2022-12-27T08:59:06.205Z,85.12
2022-12-27T09:01:34.539Z,84.27
2022-12-27T09:04:02.501Z,82.73
2022-12-27T09:06:31.857Z,81.71
2022-12-27T09:09:01.385Z,81.27
2022-12-27T09:11:31.149Z,82.18
2022-12-27T09:14:00.830Z,79.47
2022-12-27T09:16:30.261Z,78.04
2022-12-27T09:18:59.650Z,77.76
2022-12-27T09:21:29.897Z,76.01
2022-12-27T09:23:59.653Z,74.03
2022-12-27T09:26:29.921Z,75.12
2022-12-27T09:28:58.852Z,76.51
2022-12-27T09:31:32.707Z,78.44
2022-12-27T09:34:00.803Z,76.50
2022-12-27T09:36:30.389Z,75.79
2022-12-27T09:39:00.277Z,74.71
2022-12-27T09:44:34.725Z,72.69
2022-12-27T09:47:07.852Z,72.71
2022-12-27T09:49:41.118Z,72.86
2022-12-27T09:52:15.193Z,72.97
2022-12-27T09:54:59.372Z,72.47
2022-12-27T09:57:38.250Z,72.54
2022-12-27T10:00:14.697Z,72.19
2022-12-27T10:02:44.568Z,72.15
2022-12-27T10:05:22.102Z,72.38
2022-12-27T10:08:18.749Z,71.67
2022-12-27T10:10:56.864Z,70.53
2022-12-27T10:13:33.093Z,70.65
2022-12-27T10:16:10.587Z,68.10
2022-12-27T10:18:49.759Z,68.47
2022-12-27T10:21:21.792Z,68.37
2022-12-27T10:23:55.723Z,67.80
2022-12-27T10:26:25.277Z,66.36
2022-12-27T10:28:57.610Z,65.77
2022-12-27T10:31:27.039Z,66.19
2022-12-27T10:33:55.664Z,65.60
2022-12-27T10:36:26.568Z,64.87
2022-12-27T10:38:54.670Z,64.69
2022-12-27T10:41:33.760Z,65.72
2022-12-27T10:44:01.638Z,65.44
2022-12-27T10:46:33.279Z,65.08
2022-12-27T10:51:53.444Z,66.59
2022-12-27T10:54:25.373Z,66.73
2022-12-27T10:56:55.401Z,65.35
2022-12-27T10:59:25.037Z,64.63
2022-12-27T11:02:16.728Z,64.79
2022-12-27T11:04:58.732Z,65.56
2022-12-27T11:07:31.484Z,65.66
2022-12-27T11:10:16.792Z,66.81
2022-12-27T11:12:58.369Z,66.69
2022-12-27T11:15:27.682Z,66.58
2022-12-27T11:17:57.469Z,67.04
2022-12-27T11:20:28.870Z,69.27
2022-12-27T11:23:00.363Z,69.84
2022-12-27T11:25:29.282Z,68.84
2022-12-27T11:28:03.171Z,68.53
2022-12-27T11:30:33.592Z,68.71
2022-12-27T11:33:04.869Z,69.04
2022-12-27T11:35:37.032Z,68.77
2022-12-27T11:38:05.037Z,68.14
2022-12-27T11:40:34.796Z,67.41
2022-12-27T11:43:09.189Z,66.35
2022-12-27T11:45:42.170Z,65.67
2022-12-27T11:48:23.065Z,65.63
2022-12-27T11:51:31.188Z,65.60
2022-12-27T11:54:14.237Z,64.67
2022-12-27T11:56:46.467Z,64.67
2022-12-27T11:59:44.222Z,65.45
2022-12-27T12:02:27.525Z,66.28
2022-12-27T12:05:25.792Z,67.25
2022-12-27T12:08:14.479Z,67.97
2022-12-27T12:10:51.473Z,68.38
2022-12-27T12:13:37.332Z,69.54
2022-12-27T12:16:34.002Z,69.06
2022-12-27T12:19:14.213Z,70.08
2022-12-27T12:21:56.652Z,70.61
2022-12-27T12:24:51.999Z,70.30
2022-12-27T12:27:43.917Z,70.86
2022-12-27T12:30:47.604Z,71.03
2022-12-27T12:33:43.164Z,71.47
2022-12-27T12:36:27.468Z,72.00
2022-12-27T12:39:02.653Z,72.11
2022-12-27T12:41:52.549Z,71.92
2022-12-27T12:44:49.515Z,72.35
2022-12-27T12:47:36.756Z,73.70
2022-12-27T12:50:30.466Z,74.31
2022-12-27T12:53:19.716Z,74.77
2022-12-27T12:56:02.493Z,74.97
2022-12-27T12:58:46.260Z,74.05
2022-12-27T13:01:27.717Z,74.50
2022-12-27T13:04:11.322Z,74.19
2022-12-27T13:07:17.563Z,74.21
2022-12-27T13:09:56.688Z,74.68
2022-12-27T13:12:32.822Z,75.05
2022-12-27T13:15:24.623Z,75.78
2022-12-27T13:18:04.585Z,76.24
2022-12-27T13:20:47.231Z,77.74
2022-12-27T13:23:25.496Z,78.48
2022-12-27T13:26:04.563Z,79.83
2022-12-27T13:28:45.129Z,80.20
2022-12-27T13:31:29.351Z,80.37
2022-12-27T13:34:08.875Z,81.30
2022-12-27T13:36:51.921Z,81.54
2022-12-27T13:39:34.754Z,81.94
2022-12-27T13:42:27.527Z,82.12
2022-12-27T13:45:04.636Z,83.05
2022-12-27T13:47:49.800Z,82.60
2022-12-27T13:50:34.739Z,82.40
2022-12-27T13:53:36.599Z,83.02
2022-12-27T13:56:51.950Z,83.30
2022-12-27T13:59:42.451Z,83.90
2022-12-27T14:02:45.453Z,84.68
2022-12-27T14:05:56.978Z,84.20
2022-12-27T14:08:38.833Z,84.79
2022-12-27T14:11:29.952Z,85.63
2022-12-27T14:14:00.167Z,85.79
2022-12-27T14:16:52.130Z,87.24
2022-12-27T14:19:49.546Z,88.15
2022-12-27T14:22:53.939Z,88.61
2022-12-27T14:26:05.106Z,88.85
2022-12-27T14:29:01.194Z,89.33
2022-12-27T14:32:08.299Z,89.58
2022-12-27T14:35:14.590Z,90.44
2022-12-27T14:38:26.519Z,91.86
2022-12-27T14:41:37.054Z,92.40
2022-12-27T14:44:43.191Z,93.72
2022-12-27T14:47:48.957Z,95.57
2022-12-27T14:50:47.011Z,97.30
2022-12-27T14:53:57.004Z,98.26
2022-12-27T14:56:30.749Z,98.91
2022-12-27T14:59:15.837Z,100.00
2022-12-27T15:02:05.036Z,100.00
2022-12-27T15:04:59.637Z,100.00
2022-12-27T15:07:42.625Z,100.00
2022-12-27T15:10:21.448Z,100.00
2022-12-27T15:12:58.790Z,100.00
2022-12-27T15:15:45.043Z,100.00
2022-12-27T15:18:37.412Z,100.00
2022-12-27T15:21:21.581Z,100.00
2022-12-27T15:23:54.457Z,100.00
2022-12-27T15:26:31.556Z,100.00
2022-12-27T15:29:13.756Z,100.00
2022-12-27T15:31:56.943Z,100.00
2022-12-27T15:34:39.978Z,100.00
2022-12-27T15:37:47.202Z,100.00
2022-12-27T15:40:26.129Z,100.00
2022-12-27T15:42:59.293Z,100.00
2022-12-27T15:45:46.388Z,100.00
2022-12-27T15:48:39.547Z,100.00
2022-12-27T15:51:15.452Z,100.00
2022-12-27T15:53:59.393Z,100.00
2022-12-27T15:56:56.495Z,100.00
2022-12-27T15:59:45.410Z,100.00
2022-12-27T16:02:32.799Z,100.00
2022-12-27T16:05:14.047Z,100.00
2022-12-27T16:07:47.148Z,100.00
2022-12-27T16:10:49.611Z,100.00
2022-12-27T16:13:41.156Z,100.00
2022-12-27T16:16:56.024Z,100.00
2022-12-27T16:19:48.667Z,100.00
2022-12-27T16:22:26.251Z,100.00
2022-12-27T16:24:54.224Z,100.00
2022-12-27T16:27:30.206Z,100.00
2022-12-27T16:29:59.184Z,100.00
2022-12-27T16:32:29.290Z,100.00
2022-12-27T16:35:13.119Z,100.00
2022-12-27T16:37:45.572Z,100.00
2022-12-27T16:40:36.768Z,100.00
2022-12-27T16:43:38.356Z,100.00
2022-12-27T16:46:20.793Z,100.00
2022-12-27T16:49:25.006Z,100.00
2022-12-27T16:52:07.789Z,100.00
2022-12-27T16:54:49.774Z,100.00
2022-12-27T16:57:34.698Z,100.00
2022-12-27T17:00:22.577Z,100.00
2022-12-27T17:02:50.560Z,100.00
2022-12-27T17:05:37.010Z,100.00
2022-12-27T17:08:20.152Z,100.00
2022-12-27T17:11:24.113Z,100.00
2022-12-27T17:13:58.715Z,100.00
2022-12-27T17:16:30.331Z,100.00
2022-12-27T17:19:02.816Z,100.00
2022-12-27T17:21:33.389Z,100.00
2022-12-27T17:24:06.709Z,100.00
2022-12-27T17:26:54.481Z,100.00
2022-12-27T17:29:47.313Z,100.00
2022-12-27T17:32:27.939Z,100.00
2022-12-27T17:35:06.493Z,100.00
2022-12-27T17:37:43.623Z,100.00
2022-12-27T17:40:33.387Z,100.00
2022-12-27T17:43:31.002Z,100.00
2022-12-27T17:46:18.235Z,100.00
2022-12-27T17:48:47.591Z,100.00
2022-12-27T17:51:21.455Z,100.00
2022-12-27T17:54:08.892Z,100.00
2022-12-27T17:57:02.213Z,100.00
2022-12-27T17:59:31.820Z,100.00
2022-12-27T18:02:05.322Z,100.00
2022-12-27T18:04:41.017Z,100.00
2022-12-27T18:07:11.946Z,100.00
2022-12-27T18:09:44.743Z,100.00
2022-12-27T18:12:19.217Z,100.00
2022-12-27T18:14:52.650Z,100.00
2022-12-27T18:17:28.957Z,100.00
2022-12-27T18:19:58.739Z,100.00
2022-12-27T18:22:27.643Z,100.00
2022-12-27T18:24:55.511Z,100.00
2022-12-27T18:27:25.716Z,100.00
2022-12-27T18:29:53.559Z,100.00
2022-12-27T18:32:25.837Z,100.00
2022-12-27T18:34:58.543Z,100.00
2022-12-27T18:37:28.556Z,100.00
2022-12-27T18:40:00.195Z,100.00
2022-12-27T18:42:32.350Z,100.00
2022-12-27T18:45:05.111Z,100.00
2022-12-27T18:47:39.054Z,100.00
2022-12-27T18:50:16.713Z,100.00
2022-12-27T18:52:51.306Z,100.00
2022-12-27T18:55:26.884Z,100.00
2022-12-27T18:58:04.807Z,100.00
2022-12-27T19:00:33.006Z,100.00
2022-12-27T19:03:14.925Z,100.00
2022-12-27T19:06:01.963Z,100.00
2022-12-27T19:08:35.198Z,100.00
2022-12-27T19:11:03.352Z,100.00
2022-12-27T19:13:38.683Z,100.00
2022-12-27T19:16:07.377Z,100.00
2022-12-27T19:18:38.507Z,100.00
2022-12-27T19:21:07.853Z,100.00
2022-12-27T19:23:38.721Z,100.00
2022-12-27T19:26:22.792Z,100.00
2022-12-27T19:29:01.995Z,100.00
2022-12-27T19:31:30.674Z,100.00
2022-12-27T19:34:02.664Z,100.00
2022-12-27T19:36:33.622Z,100.00
2022-12-27T19:39:03.184Z,100.00
2022-12-27T19:41:31.834Z,100.00
2022-12-27T19:43:59.766Z,100.00
2022-12-27T19:46:33.383Z,100.00
2022-12-27T19:51:49.245Z,100.00
2022-12-27T19:54:21.070Z,100.00
2022-12-27T19:56:49.966Z,100.00
2022-12-27T19:59:19.462Z,100.00
2022-12-27T20:01:47.790Z,100.00
2022-12-27T20:04:16.359Z,100.00
2022-12-27T20:06:46.147Z,100.00
2022-12-27T20:09:16.111Z,100.00
2022-12-27T20:11:45.487Z,100.00
2022-12-27T20:14:14.702Z,100.00
2022-12-27T20:16:42.837Z,100.00
2022-12-27T20:19:12.383Z,100.00
2022-12-27T20:21:41.325Z,100.00
2022-12-27T20:24:11.085Z,100.00
2022-12-27T20:26:40.041Z,100.00
2022-12-27T20:29:09.407Z,100.00
2022-12-27T20:31:44.191Z,100.00
2022-12-27T20:34:13.966Z,100.00
2022-12-27T20:36:42.058Z,100.00
2022-12-27T20:39:12.718Z,100.00
2022-12-27T20:41:40.766Z,100.00
2022-12-27T20:44:10.091Z,100.00
2022-12-27T20:46:38.619Z,100.00
2022-12-27T20:49:07.101Z,100.00
2022-12-27T20:51:35.059Z,100.00
2022-12-27T20:54:04.313Z,100.00
2022-12-27T20:56:32.653Z,100.00
2022-12-27T20:59:01.568Z,100.00
2022-12-27T21:01:30.926Z,100.00
2022-12-27T21:03:58.858Z,100.00
2022-12-27T21:06:31.372Z,100.00
2022-12-27T21:09:06.118Z,100.00
2022-12-27T21:11:33.976Z,100.00
2022-12-27T21:14:02.890Z,100.00
2022-12-27T21:16:34.069Z,100.00
2022-12-27T21:19:05.003Z,100.00
2022-12-27T21:21:34.786Z,100.00
2022-12-27T21:24:03.005Z,100.00
2022-12-27T21:26:32.774Z,100.00
2022-12-27T21:29:01.534Z,100.00
2022-12-27T21:31:30.623Z,100.00
2022-12-27T21:34:00.572Z,100.00
2022-12-27T21:36:29.946Z,100.00
2022-12-27T21:38:58.341Z,100.00
2022-12-27T21:41:27.607Z,100.00
2022-12-27T21:43:55.846Z,100.00
2022-12-27T21:46:26.390Z,100.00
2022-12-27T21:48:56.409Z,100.00
2022-12-27T21:51:26.417Z,100.00
2022-12-27T21:53:56.191Z,100.00
2022-12-27T21:56:25.036Z,100.00
2022-12-27T21:58:56.373Z,100.00
2022-12-27T22:01:26.511Z,100.00
2022-12-27T22:03:56.012Z,100.00
2022-12-27T22:06:27.668Z,100.00
2022-12-27T22:08:57.852Z,100.00
2022-12-27T22:11:26.557Z,100.00
2022-12-27T22:13:56.350Z,100.00
2022-12-27T22:16:26.499Z,100.00
2022-12-27T22:19:02.655Z,100.00
2022-12-27T22:21:39.351Z,100.00
2022-12-27T22:24:20.372Z,100.00
2022-12-27T22:26:50.662Z,100.00
2022-12-27T22:29:19.391Z,100.00
2022-12-27T22:31:47.256Z,100.00
2022-12-27T22:34:15.215Z,100.00
2022-12-27T22:36:44.466Z,100.00
2022-12-27T22:39:12.391Z,100.00
2022-12-27T22:41:43.060Z,100.00
2022-12-27T22:44:13.435Z,100.00
2022-12-27T22:47:15.762Z,100.00
2022-12-27T22:49:29.957Z,100.00
2022-12-27T22:51:59.199Z,100.00
2022-12-27T22:55:03.936Z,100.00
2022-12-27T22:57:14.906Z,100.00
2022-12-27T22:59:43.547Z,100.00
2022-12-27T23:02:11.604Z,100.00
2022-12-27T23:04:39.630Z,100.00
2022-12-27T23:07:08.905Z,100.00
2022-12-27T23:09:42.891Z,100.00
2022-12-27T23:12:11.450Z,100.00
2022-12-27T23:14:39.575Z,100.00
2022-12-27T23:17:07.509Z,100.00
2022-12-27T23:19:38.645Z,100.00
2022-12-27T23:22:11.409Z,100.00
2022-12-27T23:24:39.724Z,100.00
2022-12-27T23:27:07.959Z,100.00
2022-12-27T23:29:41.932Z,100.00
2022-12-27T23:32:10.248Z,100.00
2022-12-27T23:34:43.972Z,100.00
2022-12-27T23:37:13.562Z,100.00
2022-12-27T23:39:41.451Z,100.00
2022-12-27T23:42:09.707Z,100.00
2022-12-27T23:44:39.556Z,100.00
2022-12-27T23:47:07.960Z,100.00
2022-12-27T23:49:37.586Z,100.00
2022-12-27T23:52:08.011Z,100.00
2022-12-27T23:54:39.803Z,100.00
2022-12-27T23:57:20.128Z,100.00
2022-12-27T23:59:54.626Z,100.00
